sensor_id;sensor_type;location;lat;lon;timestamp;temperature;humidity
37460;DHT22;23318;50.966;5.284;2022-07-23T00:01:22;18.10;99.90
37460;DHT22;23318;50.966;5.284;2022-07-23T00:03:49;18.10;99.90
37460;DHT22;23318;50.966;5.284;2022-07-23T00:06:14;18.10;99.90
37460;DHT22;23318;50.966;5.284;2022-07-23T00:08:41;18.00;99.90
37460;DHT22;23318;50.966;5.284;2022-07-23T00:11:06;17.90;99.90
37460;DHT22;23318;50.966;5.284;2022-07-23T00:13:32;17.80;99.90
37460;DHT22;23318;50.966;5.284;2022-07-23T00:15:58;17.70;99.90
37460;DHT22;23318;50.966;5.284;2022-07-23T00:18:24;17.70;99.90
37460;DHT22;23318;50.966;5.284;2022-07-23T00:20:49;17.70;99.90
37460;DHT22;23318;50.966;5.284;2022-07-23T00:23:16;17.70;99.90
37460;DHT22;23318;50.966;5.284;2022-07-23T00:25:42;17.70;99.90
37460;DHT22;23318;50.966;5.284;2022-07-23T00:28:07;17.60;99.90
37460;DHT22;23318;50.966;5.284;2022-07-23T00:30:33;17.70;99.90
37460;DHT22;23318;50.966;5.284;2022-07-23T00:33:02;17.60;99.90
37460;DHT22;23318;50.966;5.284;2022-07-23T00:35:34;17.50;99.90
37460;DHT22;23318;50.966;5.284;2022-07-23T00:38:00;17.40;99.90
37460;DHT22;23318;50.966;5.284;2022-07-23T00:40:27;17.50;99.90
37460;DHT22;23318;50.966;5.284;2022-07-23T00:42:53;17.50;99.90
37460;DHT22;23318;50.966;5.284;2022-07-23T00:45:19;17.40;99.90
37460;DHT22;23318;50.966;5.284;2022-07-23T00:47:45;17.40;99.90
37460;DHT22;23318;50.966;5.284;2022-07-23T00:50:11;17.30;99.90
37460;DHT22;23318;50.966;5.284;2022-07-23T00:52:38;17.40;99.90
37460;DHT22;23318;50.966;5.284;2022-07-23T00:55:05;17.40;99.90
37460;DHT22;23318;50.966;5.284;2022-07-23T00:57:32;17.40;99.90
37460;DHT22;23318;50.966;5.284;2022-07-23T00:59:57;17.30;99.90
37460;DHT22;23318;50.966;5.284;2022-07-23T01:02:26;17.20;99.90
37460;DHT22;23318;50.966;5.284;2022-07-23T01:04:53;17.20;99.90
37460;DHT22;23318;50.966;5.284;2022-07-23T01:07:19;17.10;99.90
37460;DHT22;23318;50.966;5.284;2022-07-23T01:09:46;17.10;99.90
37460;DHT22;23318;50.966;5.284;2022-07-23T01:12:12;17.10;99.90
37460;DHT22;23318;50.966;5.284;2022-07-23T01:14:38;17.00;99.90
37460;DHT22;23318;50.966;5.284;2022-07-23T01:17:04;17.00;99.90
37460;DHT22;23318;50.966;5.284;2022-07-23T01:19:29;17.10;99.90
37460;DHT22;23318;50.966;5.284;2022-07-23T01:21:57;17.10;99.90
37460;DHT22;23318;50.966;5.284;2022-07-23T01:24:23;17.00;99.90
37460;DHT22;23318;50.966;5.284;2022-07-23T01:26:49;16.90;99.90
37460;DHT22;23318;50.966;5.284;2022-07-23T01:29:16;16.90;99.90
37460;DHT22;23318;50.966;5.284;2022-07-23T01:31:42;16.80;99.90
37460;DHT22;23318;50.966;5.284;2022-07-23T01:34:08;16.80;99.90
37460;DHT22;23318;50.966;5.284;2022-07-23T01:36:35;16.90;99.90
37460;DHT22;23318;50.966;5.284;2022-07-23T01:39:02;16.80;99.90
37460;DHT22;23318;50.966;5.284;2022-07-23T01:41:28;16.70;99.90
37460;DHT22;23318;50.966;5.284;2022-07-23T01:43:53;16.70;99.90
37460;DHT22;23318;50.966;5.284;2022-07-23T01:46:19;16.70;99.90
37460;DHT22;23318;50.966;5.284;2022-07-23T01:48:45;16.80;99.90
37460;DHT22;23318;50.966;5.284;2022-07-23T01:51:10;16.80;99.90
37460;DHT22;23318;50.966;5.284;2022-07-23T01:53:36;16.90;99.90
37460;DHT22;23318;50.966;5.284;2022-07-23T01:56:02;16.90;99.90
37460;DHT22;23318;50.966;5.284;2022-07-23T01:58:29;16.80;99.90
37460;DHT22;23318;50.966;5.284;2022-07-23T02:00:55;16.80;99.90
37460;DHT22;23318;50.966;5.284;2022-07-23T02:03:21;16.70;99.90
37460;DHT22;23318;50.966;5.284;2022-07-23T02:05:47;16.70;99.90
37460;DHT22;23318;50.966;5.284;2022-07-23T02:08:12;16.70;99.90
37460;DHT22;23318;50.966;5.284;2022-07-23T02:10:38;16.80;99.90
37460;DHT22;23318;50.966;5.284;2022-07-23T02:13:04;16.70;99.90
37460;DHT22;23318;50.966;5.284;2022-07-23T02:15:30;16.60;99.90
37460;DHT22;23318;50.966;5.284;2022-07-23T02:17:56;16.60;99.90
37460;DHT22;23318;50.966;5.284;2022-07-23T02:20:21;16.50;99.90
37460;DHT22;23318;50.966;5.284;2022-07-23T02:22:48;16.50;99.90
37460;DHT22;23318;50.966;5.284;2022-07-23T02:25:13;16.50;99.90
37460;DHT22;23318;50.966;5.284;2022-07-23T02:27:39;16.40;99.90
37460;DHT22;23318;50.966;5.284;2022-07-23T02:30:06;16.40;99.90
37460;DHT22;23318;50.966;5.284;2022-07-23T02:32:32;16.40;99.90
37460;DHT22;23318;50.966;5.284;2022-07-23T02:34:58;16.30;99.90
37460;DHT22;23318;50.966;5.284;2022-07-23T02:37:23;16.20;99.90
37460;DHT22;23318;50.966;5.284;2022-07-23T02:39:49;16.10;99.90
37460;DHT22;23318;50.966;5.284;2022-07-23T02:42:15;16.10;99.90
37460;DHT22;23318;50.966;5.284;2022-07-23T02:44:41;16.10;99.90
37460;DHT22;23318;50.966;5.284;2022-07-23T02:47:06;16.20;99.90
37460;DHT22;23318;50.966;5.284;2022-07-23T02:49:32;16.30;99.90
37460;DHT22;23318;50.966;5.284;2022-07-23T02:51:58;16.20;99.90
37460;DHT22;23318;50.966;5.284;2022-07-23T02:54:23;16.20;99.90
37460;DHT22;23318;50.966;5.284;2022-07-23T02:56:49;16.30;99.90
37460;DHT22;23318;50.966;5.284;2022-07-23T02:59:17;16.40;99.90
37460;DHT22;23318;50.966;5.284;2022-07-23T03:01:43;16.40;99.90
37460;DHT22;23318;50.966;5.284;2022-07-23T03:04:08;16.40;99.90
37460;DHT22;23318;50.966;5.284;2022-07-23T03:06:34;16.30;99.90
37460;DHT22;23318;50.966;5.284;2022-07-23T03:09:00;16.30;99.90
37460;DHT22;23318;50.966;5.284;2022-07-23T03:11:25;16.30;99.90
37460;DHT22;23318;50.966;5.284;2022-07-23T03:13:51;16.20;99.90
37460;DHT22;23318;50.966;5.284;2022-07-23T03:16:17;16.20;99.90
37460;DHT22;23318;50.966;5.284;2022-07-23T03:18:42;16.20;99.90
37460;DHT22;23318;50.966;5.284;2022-07-23T03:21:08;16.20;99.90
37460;DHT22;23318;50.966;5.284;2022-07-23T03:23:34;16.10;99.90
37460;DHT22;23318;50.966;5.284;2022-07-23T03:25:59;16.20;99.90
37460;DHT22;23318;50.966;5.284;2022-07-23T03:28:25;16.20;99.90
37460;DHT22;23318;50.966;5.284;2022-07-23T03:30:50;16.00;99.90
37460;DHT22;23318;50.966;5.284;2022-07-23T03:33:17;16.00;99.90
37460;DHT22;23318;50.966;5.284;2022-07-23T03:35:44;16.10;99.90
37460;DHT22;23318;50.966;5.284;2022-07-23T03:38:10;16.00;99.90
37460;DHT22;23318;50.966;5.284;2022-07-23T03:40:36;16.00;99.90
37460;DHT22;23318;50.966;5.284;2022-07-23T03:43:01;15.80;99.90
37460;DHT22;23318;50.966;5.284;2022-07-23T03:45:27;15.80;99.90
37460;DHT22;23318;50.966;5.284;2022-07-23T03:47:53;15.90;99.90
37460;DHT22;23318;50.966;5.284;2022-07-23T03:50:19;15.60;99.90
37460;DHT22;23318;50.966;5.284;2022-07-23T03:52:45;15.30;99.90
37460;DHT22;23318;50.966;5.284;2022-07-23T03:55:10;15.40;99.90
37460;DHT22;23318;50.966;5.284;2022-07-23T03:57:36;15.20;99.90
37460;DHT22;23318;50.966;5.284;2022-07-23T04:00:05;15.50;99.90
37460;DHT22;23318;50.966;5.284;2022-07-23T04:02:33;15.70;99.90
37460;DHT22;23318;50.966;5.284;2022-07-23T04:04:58;15.80;99.90
37460;DHT22;23318;50.966;5.284;2022-07-23T04:07:25;15.80;99.90
37460;DHT22;23318;50.966;5.284;2022-07-23T04:09:51;15.70;99.90
37460;DHT22;23318;50.966;5.284;2022-07-23T04:12:16;15.80;99.90
37460;DHT22;23318;50.966;5.284;2022-07-23T04:14:42;15.80;99.90
37460;DHT22;23318;50.966;5.284;2022-07-23T04:17:08;15.80;99.90
37460;DHT22;23318;50.966;5.284;2022-07-23T04:19:34;15.90;99.90
37460;DHT22;23318;50.966;5.284;2022-07-23T04:22:05;15.90;99.90
37460;DHT22;23318;50.966;5.284;2022-07-23T04:24:31;16.00;99.90
37460;DHT22;23318;50.966;5.284;2022-07-23T04:26:56;15.90;99.90
37460;DHT22;23318;50.966;5.284;2022-07-23T04:29:23;15.80;99.90
37460;DHT22;23318;50.966;5.284;2022-07-23T04:31:49;15.90;99.90
37460;DHT22;23318;50.966;5.284;2022-07-23T04:34:14;15.80;99.90
37460;DHT22;23318;50.966;5.284;2022-07-23T04:36:40;15.80;99.90
37460;DHT22;23318;50.966;5.284;2022-07-23T04:39:06;15.70;99.90
37460;DHT22;23318;50.966;5.284;2022-07-23T04:41:32;15.30;99.90
37460;DHT22;23318;50.966;5.284;2022-07-23T04:43:57;15.40;99.90
37460;DHT22;23318;50.966;5.284;2022-07-23T04:46:23;15.50;99.90
37460;DHT22;23318;50.966;5.284;2022-07-23T04:48:49;15.80;99.90
37460;DHT22;23318;50.966;5.284;2022-07-23T04:51:14;16.10;99.90
37460;DHT22;23318;50.966;5.284;2022-07-23T04:53:40;15.60;99.90
37460;DHT22;23318;50.966;5.284;2022-07-23T04:56:06;15.50;99.90
37460;DHT22;23318;50.966;5.284;2022-07-23T04:58:32;15.70;99.90
37460;DHT22;23318;50.966;5.284;2022-07-23T05:00:57;16.10;99.90
37460;DHT22;23318;50.966;5.284;2022-07-23T05:03:23;16.30;99.90
37460;DHT22;23318;50.966;5.284;2022-07-23T05:05:49;16.50;99.90
37460;DHT22;23318;50.966;5.284;2022-07-23T05:08:15;16.60;99.90
37460;DHT22;23318;50.966;5.284;2022-07-23T05:10:41;16.80;99.90
37460;DHT22;23318;50.966;5.284;2022-07-23T05:13:07;16.90;99.90
37460;DHT22;23318;50.966;5.284;2022-07-23T05:15:32;16.90;99.90
37460;DHT22;23318;50.966;5.284;2022-07-23T05:17:58;16.90;99.90
37460;DHT22;23318;50.966;5.284;2022-07-23T05:20:24;17.00;99.90
37460;DHT22;23318;50.966;5.284;2022-07-23T05:22:50;17.00;99.90
37460;DHT22;23318;50.966;5.284;2022-07-23T05:25:16;17.00;99.90
37460;DHT22;23318;50.966;5.284;2022-07-23T05:27:42;17.00;99.90
37460;DHT22;23318;50.966;5.284;2022-07-23T05:30:08;17.10;99.90
37460;DHT22;23318;50.966;5.284;2022-07-23T05:32:33;17.10;99.90
37460;DHT22;23318;50.966;5.284;2022-07-23T05:34:59;17.00;99.90
37460;DHT22;23318;50.966;5.284;2022-07-23T05:37:25;17.00;99.90
37460;DHT22;23318;50.966;5.284;2022-07-23T05:39:50;17.20;99.90
37460;DHT22;23318;50.966;5.284;2022-07-23T05:42:16;17.00;99.90
37460;DHT22;23318;50.966;5.284;2022-07-23T05:44:42;17.10;99.90
37460;DHT22;23318;50.966;5.284;2022-07-23T05:47:08;17.10;99.90
37460;DHT22;23318;50.966;5.284;2022-07-23T05:49:34;17.30;99.90
37460;DHT22;23318;50.966;5.284;2022-07-23T05:52:05;17.30;99.90
37460;DHT22;23318;50.966;5.284;2022-07-23T05:54:31;17.50;99.90
37460;DHT22;23318;50.966;5.284;2022-07-23T05:56:59;17.60;99.90
37460;DHT22;23318;50.966;5.284;2022-07-23T05:59:24;17.60;99.90
37460;DHT22;23318;50.966;5.284;2022-07-23T06:01:50;17.70;99.90
37460;DHT22;23318;50.966;5.284;2022-07-23T06:04:15;17.70;99.90
37460;DHT22;23318;50.966;5.284;2022-07-23T06:06:41;17.80;99.90
37460;DHT22;23318;50.966;5.284;2022-07-23T06:09:07;17.90;99.90
37460;DHT22;23318;50.966;5.284;2022-07-23T06:11:32;18.00;99.90
37460;DHT22;23318;50.966;5.284;2022-07-23T06:13:58;18.00;99.90
37460;DHT22;23318;50.966;5.284;2022-07-23T06:16:24;18.10;99.90
37460;DHT22;23318;50.966;5.284;2022-07-23T06:18:49;18.20;99.90
37460;DHT22;23318;50.966;5.284;2022-07-23T06:21:15;18.30;99.90
37460;DHT22;23318;50.966;5.284;2022-07-23T06:23:41;18.20;99.90
37460;DHT22;23318;50.966;5.284;2022-07-23T06:26:06;18.50;99.90
37460;DHT22;23318;50.966;5.284;2022-07-23T06:28:32;18.60;99.90
37460;DHT22;23318;50.966;5.284;2022-07-23T06:30:58;18.70;99.90
37460;DHT22;23318;50.966;5.284;2022-07-23T06:33:23;18.70;99.90
37460;DHT22;23318;50.966;5.284;2022-07-23T06:35:49;18.50;99.90
37460;DHT22;23318;50.966;5.284;2022-07-23T06:38:14;18.70;99.90
37460;DHT22;23318;50.966;5.284;2022-07-23T06:40:40;18.70;99.90
37460;DHT22;23318;50.966;5.284;2022-07-23T06:43:06;18.40;99.90
37460;DHT22;23318;50.966;5.284;2022-07-23T06:45:31;18.80;99.90
37460;DHT22;23318;50.966;5.284;2022-07-23T06:47:57;19.10;99.90
37460;DHT22;23318;50.966;5.284;2022-07-23T06:50:23;19.20;99.90
37460;DHT22;23318;50.966;5.284;2022-07-23T06:52:48;19.50;99.90
37460;DHT22;23318;50.966;5.284;2022-07-23T06:55:14;19.80;99.90
37460;DHT22;23318;50.966;5.284;2022-07-23T06:57:40;19.90;99.90
37460;DHT22;23318;50.966;5.284;2022-07-23T07:00:06;19.90;99.90
37460;DHT22;23318;50.966;5.284;2022-07-23T07:02:32;19.80;99.90
37460;DHT22;23318;50.966;5.284;2022-07-23T07:04:57;19.90;99.90
37460;DHT22;23318;50.966;5.284;2022-07-23T07:07:23;19.90;99.90
37460;DHT22;23318;50.966;5.284;2022-07-23T07:09:49;20.30;99.90
37460;DHT22;23318;50.966;5.284;2022-07-23T07:12:14;20.40;99.90
37460;DHT22;23318;50.966;5.284;2022-07-23T07:14:40;20.60;99.90
37460;DHT22;23318;50.966;5.284;2022-07-23T07:17:06;20.60;99.90
37460;DHT22;23318;50.966;5.284;2022-07-23T07:19:31;20.50;99.90
37460;DHT22;23318;50.966;5.284;2022-07-23T07:21:57;20.30;99.90
37460;DHT22;23318;50.966;5.284;2022-07-23T07:24:23;20.20;99.90
37460;DHT22;23318;50.966;5.284;2022-07-23T07:26:48;20.40;99.90
37460;DHT22;23318;50.966;5.284;2022-07-23T07:29:14;20.40;99.90
37460;DHT22;23318;50.966;5.284;2022-07-23T07:31:40;20.40;99.90
37460;DHT22;23318;50.966;5.284;2022-07-23T07:34:05;20.80;99.90
37460;DHT22;23318;50.966;5.284;2022-07-23T07:36:31;21.10;99.90
37460;DHT22;23318;50.966;5.284;2022-07-23T07:38:58;21.10;99.90
37460;DHT22;23318;50.966;5.284;2022-07-23T07:41:23;21.20;99.90
37460;DHT22;23318;50.966;5.284;2022-07-23T07:43:51;21.30;99.90
37460;DHT22;23318;50.966;5.284;2022-07-23T07:46:17;21.50;99.90
37460;DHT22;23318;50.966;5.284;2022-07-23T07:48:43;21.40;99.90
37460;DHT22;23318;50.966;5.284;2022-07-23T07:51:08;21.40;99.90
37460;DHT22;23318;50.966;5.284;2022-07-23T07:53:34;21.50;99.90
37460;DHT22;23318;50.966;5.284;2022-07-23T07:56:00;21.40;99.90
37460;DHT22;23318;50.966;5.284;2022-07-23T07:58:25;21.40;99.90
37460;DHT22;23318;50.966;5.284;2022-07-23T08:00:51;21.50;99.90
37460;DHT22;23318;50.966;5.284;2022-07-23T08:03:17;21.60;99.90
37460;DHT22;23318;50.966;5.284;2022-07-23T08:05:43;21.50;99.90
37460;DHT22;23318;50.966;5.284;2022-07-23T08:08:08;21.60;99.90
37460;DHT22;23318;50.966;5.284;2022-07-23T08:10:40;21.60;99.90
37460;DHT22;23318;50.966;5.284;2022-07-23T08:13:06;21.70;99.90
37460;DHT22;23318;50.966;5.284;2022-07-23T08:15:32;21.90;99.90
37460;DHT22;23318;50.966;5.284;2022-07-23T08:17:58;22.00;99.90
37460;DHT22;23318;50.966;5.284;2022-07-23T08:20:24;21.40;99.90
37460;DHT22;23318;50.966;5.284;2022-07-23T08:22:57;21.30;99.90
37460;DHT22;23318;50.966;5.284;2022-07-23T08:25:34;20.90;99.90
37460;DHT22;23318;50.966;5.284;2022-07-23T08:28:03;21.20;99.90
37460;DHT22;23318;50.966;5.284;2022-07-23T08:30:29;21.70;99.90
37460;DHT22;23318;50.966;5.284;2022-07-23T08:35:28;21.80;99.90
37460;DHT22;23318;50.966;5.284;2022-07-23T08:37:55;21.90;99.90
37460;DHT22;23318;50.966;5.284;2022-07-23T08:40:21;22.10;99.90
37460;DHT22;23318;50.966;5.284;2022-07-23T08:42:48;21.90;99.90
37460;DHT22;23318;50.966;5.284;2022-07-23T08:45:16;22.00;99.90
37460;DHT22;23318;50.966;5.284;2022-07-23T08:47:43;22.20;99.90
37460;DHT22;23318;50.966;5.284;2022-07-23T08:50:10;22.40;99.90
37460;DHT22;23318;50.966;5.284;2022-07-23T08:52:37;22.30;99.90
37460;DHT22;23318;50.966;5.284;2022-07-23T08:55:03;22.50;99.90
37460;DHT22;23318;50.966;5.284;2022-07-23T08:57:28;22.40;99.90
37460;DHT22;23318;50.966;5.284;2022-07-23T08:59:54;22.40;99.90
37460;DHT22;23318;50.966;5.284;2022-07-23T09:02:20;22.60;99.90
37460;DHT22;23318;50.966;5.284;2022-07-23T09:04:45;22.70;99.90
37460;DHT22;23318;50.966;5.284;2022-07-23T09:07:11;22.90;99.90
37460;DHT22;23318;50.966;5.284;2022-07-23T09:09:37;23.00;99.90
37460;DHT22;23318;50.966;5.284;2022-07-23T09:12:10;22.70;99.90
37460;DHT22;23318;50.966;5.284;2022-07-23T09:14:43;22.30;99.90
37460;DHT22;23318;50.966;5.284;2022-07-23T09:17:16;22.70;99.90
37460;DHT22;23318;50.966;5.284;2022-07-23T09:19:42;23.40;99.90
37460;DHT22;23318;50.966;5.284;2022-07-23T09:22:18;23.70;99.90
37460;DHT22;23318;50.966;5.284;2022-07-23T09:25:22;23.70;99.90
37460;DHT22;23318;50.966;5.284;2022-07-23T09:27:54;23.50;99.90
37460;DHT22;23318;50.966;5.284;2022-07-23T09:30:25;23.40;99.90
37460;DHT22;23318;50.966;5.284;2022-07-23T09:33:12;23.70;99.90
37460;DHT22;23318;50.966;5.284;2022-07-23T09:35:53;23.70;99.90
37460;DHT22;23318;50.966;5.284;2022-07-23T09:38:21;23.50;99.90
37460;DHT22;23318;50.966;5.284;2022-07-23T09:41:07;23.60;99.90
37460;DHT22;23318;50.966;5.284;2022-07-23T09:43:33;23.80;99.90
37460;DHT22;23318;50.966;5.284;2022-07-23T09:48:43;24.10;99.90
37460;DHT22;23318;50.966;5.284;2022-07-23T09:51:09;24.30;99.90
37460;DHT22;23318;50.966;5.284;2022-07-23T09:53:35;24.70;99.90
37460;DHT22;23318;50.966;5.284;2022-07-23T09:56:00;24.50;99.90
37460;DHT22;23318;50.966;5.284;2022-07-23T09:58:27;24.50;99.90
37460;DHT22;23318;50.966;5.284;2022-07-23T10:00:54;24.50;99.90
37460;DHT22;23318;50.966;5.284;2022-07-23T10:03:21;24.60;99.90
37460;DHT22;23318;50.966;5.284;2022-07-23T10:05:50;24.30;99.90
37460;DHT22;23318;50.966;5.284;2022-07-23T10:08:17;24.40;99.90
37460;DHT22;23318;50.966;5.284;2022-07-23T10:10:46;24.40;99.90
37460;DHT22;23318;50.966;5.284;2022-07-23T10:13:12;24.10;99.90
37460;DHT22;23318;50.966;5.284;2022-07-23T10:15:40;24.10;99.90
37460;DHT22;23318;50.966;5.284;2022-07-23T10:18:06;24.30;99.90
37460;DHT22;23318;50.966;5.284;2022-07-23T10:20:32;24.50;99.90
37460;DHT22;23318;50.966;5.284;2022-07-23T10:23:28;24.70;99.90
37460;DHT22;23318;50.966;5.284;2022-07-23T10:31:38;25.10;99.90
37460;DHT22;23318;50.966;5.284;2022-07-23T10:37:14;25.60;99.90
37460;DHT22;23318;50.966;5.284;2022-07-23T10:39:45;25.50;99.90
37460;DHT22;23318;50.966;5.284;2022-07-23T10:42:15;25.60;99.90
37460;DHT22;23318;50.966;5.284;2022-07-23T10:44:46;25.80;99.90
37460;DHT22;23318;50.966;5.284;2022-07-23T10:47:27;25.60;98.80
37460;DHT22;23318;50.966;5.284;2022-07-23T10:50:25;25.30;97.20
37460;DHT22;23318;50.966;5.284;2022-07-23T10:57:59;26.00;96.90
37460;DHT22;23318;50.966;5.284;2022-07-23T11:00:27;26.90;95.50
37460;DHT22;23318;50.966;5.284;2022-07-23T11:02:59;27.90;94.60
37460;DHT22;23318;50.966;5.284;2022-07-23T11:05:38;27.50;94.40
37460;DHT22;23318;50.966;5.284;2022-07-23T11:10:37;28.90;93.70
37460;DHT22;23318;50.966;5.284;2022-07-23T11:24:14;32.10;86.40
37460;DHT22;23318;50.966;5.284;2022-07-23T11:26:43;31.80;86.10
37460;DHT22;23318;50.966;5.284;2022-07-23T11:31:55;34.20;80.70
37460;DHT22;23318;50.966;5.284;2022-07-23T11:34:29;33.20;78.00
37460;DHT22;23318;50.966;5.284;2022-07-23T11:36:55;33.70;78.00
37460;DHT22;23318;50.966;5.284;2022-07-23T11:39:25;34.70;75.70
37460;DHT22;23318;50.966;5.284;2022-07-23T11:41:52;37.00;74.20
37460;DHT22;23318;50.966;5.284;2022-07-23T11:44:25;36.20;69.40
37460;DHT22;23318;50.966;5.284;2022-07-23T11:47:07;35.90;70.90
37460;DHT22;23318;50.966;5.284;2022-07-23T11:49:33;36.60;70.50
37460;DHT22;23318;50.966;5.284;2022-07-23T11:52:08;38.00;67.00
37460;DHT22;23318;50.966;5.284;2022-07-23T11:54:36;38.70;65.30
37460;DHT22;23318;50.966;5.284;2022-07-23T11:57:03;37.20;65.20
37460;DHT22;23318;50.966;5.284;2022-07-23T11:59:33;36.00;66.20
37460;DHT22;23318;50.966;5.284;2022-07-23T12:02:04;37.00;65.20
37460;DHT22;23318;50.966;5.284;2022-07-23T12:04:43;37.10;64.30
37460;DHT22;23318;50.966;5.284;2022-07-23T12:07:32;36.60;63.20
37460;DHT22;23318;50.966;5.284;2022-07-23T12:12:35;36.90;65.20
37460;DHT22;23318;50.966;5.284;2022-07-23T12:15:01;36.40;64.70
37460;DHT22;23318;50.966;5.284;2022-07-23T12:17:29;36.40;64.50
37460;DHT22;23318;50.966;5.284;2022-07-23T12:19:57;37.40;64.00
37460;DHT22;23318;50.966;5.284;2022-07-23T12:22:24;37.30;63.90
37460;DHT22;23318;50.966;5.284;2022-07-23T12:25:03;37.50;62.40
37460;DHT22;23318;50.966;5.284;2022-07-23T12:27:30;38.00;61.50
37460;DHT22;23318;50.966;5.284;2022-07-23T12:29:56;38.80;61.20
37460;DHT22;23318;50.966;5.284;2022-07-23T12:32:28;39.70;60.80
37460;DHT22;23318;50.966;5.284;2022-07-23T12:35:08;39.00;60.20
37460;DHT22;23318;50.966;5.284;2022-07-23T12:37:39;39.30;60.10
37460;DHT22;23318;50.966;5.284;2022-07-23T12:40:27;39.50;59.40
37460;DHT22;23318;50.966;5.284;2022-07-23T12:42:57;39.30;59.60
37460;DHT22;23318;50.966;5.284;2022-07-23T12:45:23;39.10;59.50
37460;DHT22;23318;50.966;5.284;2022-07-23T12:50:54;39.30;58.30
37460;DHT22;23318;50.966;5.284;2022-07-23T12:55:48;40.00;56.90
37460;DHT22;23318;50.966;5.284;2022-07-23T13:01:00;38.10;58.10
37460;DHT22;23318;50.966;5.284;2022-07-23T13:05:52;36.70;59.20
37460;DHT22;23318;50.966;5.284;2022-07-23T13:08:18;37.20;59.60
37460;DHT22;23318;50.966;5.284;2022-07-23T13:10:44;35.60;60.50
37460;DHT22;23318;50.966;5.284;2022-07-23T13:13:13;34.50;59.80
37460;DHT22;23318;50.966;5.284;2022-07-23T13:15:38;33.20;61.20
37460;DHT22;23318;50.966;5.284;2022-07-23T13:18:04;32.90;63.50
37460;DHT22;23318;50.966;5.284;2022-07-23T13:20:31;34.70;62.00
37460;DHT22;23318;50.966;5.284;2022-07-23T13:22:58;36.50;60.50
37460;DHT22;23318;50.966;5.284;2022-07-23T13:25:23;38.10;59.40
37460;DHT22;23318;50.966;5.284;2022-07-23T13:27:49;37.80;58.40
37460;DHT22;23318;50.966;5.284;2022-07-23T13:30:15;38.50;58.40
37460;DHT22;23318;50.966;5.284;2022-07-23T13:32:40;38.50;58.20
37460;DHT22;23318;50.966;5.284;2022-07-23T13:35:07;38.40;58.90
37460;DHT22;23318;50.966;5.284;2022-07-23T13:37:33;39.20;58.40
37460;DHT22;23318;50.966;5.284;2022-07-23T13:39:58;39.00;58.80
37460;DHT22;23318;50.966;5.284;2022-07-23T13:42:24;37.20;59.50
37460;DHT22;23318;50.966;5.284;2022-07-23T13:44:49;37.20;60.10
37460;DHT22;23318;50.966;5.284;2022-07-23T13:47:15;38.30;59.60
37460;DHT22;23318;50.966;5.284;2022-07-23T13:49:41;38.80;59.60
37460;DHT22;23318;50.966;5.284;2022-07-23T13:52:06;38.80;59.20
37460;DHT22;23318;50.966;5.284;2022-07-23T13:54:32;37.40;59.40
37460;DHT22;23318;50.966;5.284;2022-07-23T13:56:58;37.20;59.10
37460;DHT22;23318;50.966;5.284;2022-07-23T13:59:24;38.20;59.40
37460;DHT22;23318;50.966;5.284;2022-07-23T14:01:49;39.20;59.00
37460;DHT22;23318;50.966;5.284;2022-07-23T14:04:17;35.20;60.20
37460;DHT22;23318;50.966;5.284;2022-07-23T14:06:42;34.20;62.10
37460;DHT22;23318;50.966;5.284;2022-07-23T14:09:08;34.00;61.70
37460;DHT22;23318;50.966;5.284;2022-07-23T14:11:34;35.50;61.70
37460;DHT22;23318;50.966;5.284;2022-07-23T14:14:00;35.80;59.90
37460;DHT22;23318;50.966;5.284;2022-07-23T14:16:26;37.70;59.80
37460;DHT22;23318;50.966;5.284;2022-07-23T14:18:52;37.80;59.90
37460;DHT22;23318;50.966;5.284;2022-07-23T14:21:17;39.10;58.30
37460;DHT22;23318;50.966;5.284;2022-07-23T14:23:43;38.90;59.80
37460;DHT22;23318;50.966;5.284;2022-07-23T14:26:09;39.10;58.80
37460;DHT22;23318;50.966;5.284;2022-07-23T14:28:35;38.90;59.10
37460;DHT22;23318;50.966;5.284;2022-07-23T14:31:01;37.30;59.00
37460;DHT22;23318;50.966;5.284;2022-07-23T14:33:26;34.90;61.70
37460;DHT22;23318;50.966;5.284;2022-07-23T14:35:52;34.40;61.40
37460;DHT22;23318;50.966;5.284;2022-07-23T14:38:18;36.20;60.90
37460;DHT22;23318;50.966;5.284;2022-07-23T14:40:44;36.50;60.60
37460;DHT22;23318;50.966;5.284;2022-07-23T14:43:09;37.00;60.30
37460;DHT22;23318;50.966;5.284;2022-07-23T14:45:35;39.30;59.50
37460;DHT22;23318;50.966;5.284;2022-07-23T14:48:01;40.40;57.40
37460;DHT22;23318;50.966;5.284;2022-07-23T14:50:28;39.60;56.60
37460;DHT22;23318;50.966;5.284;2022-07-23T14:53:01;38.90;57.20
37460;DHT22;23318;50.966;5.284;2022-07-23T14:55:27;36.40;57.90
37460;DHT22;23318;50.966;5.284;2022-07-23T14:57:53;34.60;60.40
37460;DHT22;23318;50.966;5.284;2022-07-23T15:00:19;33.50;61.50
37460;DHT22;23318;50.966;5.284;2022-07-23T15:02:45;34.80;60.60
37460;DHT22;23318;50.966;5.284;2022-07-23T15:05:11;36.20;59.30
37460;DHT22;23318;50.966;5.284;2022-07-23T15:07:36;36.20;59.80
37460;DHT22;23318;50.966;5.284;2022-07-23T15:10:02;35.50;60.70
37460;DHT22;23318;50.966;5.284;2022-07-23T15:12:28;36.30;60.00
37460;DHT22;23318;50.966;5.284;2022-07-23T15:14:54;36.40;59.50
37460;DHT22;23318;50.966;5.284;2022-07-23T15:17:19;37.00;59.10
37460;DHT22;23318;50.966;5.284;2022-07-23T15:19:45;37.10;59.60
37460;DHT22;23318;50.966;5.284;2022-07-23T15:22:10;37.30;59.60
37460;DHT22;23318;50.966;5.284;2022-07-23T15:24:36;36.80;58.90
37460;DHT22;23318;50.966;5.284;2022-07-23T15:27:02;34.90;60.80
37460;DHT22;23318;50.966;5.284;2022-07-23T15:29:27;35.40;60.80
37460;DHT22;23318;50.966;5.284;2022-07-23T15:31:53;36.80;59.50
37460;DHT22;23318;50.966;5.284;2022-07-23T15:34:18;37.70;60.40
37460;DHT22;23318;50.966;5.284;2022-07-23T15:36:44;37.30;58.90
37460;DHT22;23318;50.966;5.284;2022-07-23T15:39:10;37.70;59.40
37460;DHT22;23318;50.966;5.284;2022-07-23T15:41:36;37.70;58.30
37460;DHT22;23318;50.966;5.284;2022-07-23T15:44:02;37.40;58.60
37460;DHT22;23318;50.966;5.284;2022-07-23T15:46:28;37.10;58.40
37460;DHT22;23318;50.966;5.284;2022-07-23T15:48:54;36.10;59.90
37460;DHT22;23318;50.966;5.284;2022-07-23T15:51:19;35.00;60.50
37460;DHT22;23318;50.966;5.284;2022-07-23T15:53:45;35.30;60.80
37460;DHT22;23318;50.966;5.284;2022-07-23T15:56:11;35.80;59.60
37460;DHT22;23318;50.966;5.284;2022-07-23T15:58:38;35.30;59.50
37460;DHT22;23318;50.966;5.284;2022-07-23T16:01:03;35.80;58.90
37460;DHT22;23318;50.966;5.284;2022-07-23T16:03:33;36.60;58.40
37460;DHT22;23318;50.966;5.284;2022-07-23T16:05:59;36.70;58.10
37460;DHT22;23318;50.966;5.284;2022-07-23T16:08:25;36.30;60.00
37460;DHT22;23318;50.966;5.284;2022-07-23T16:10:50;35.40;59.40
37460;DHT22;23318;50.966;5.284;2022-07-23T16:13:16;34.30;60.60
37460;DHT22;23318;50.966;5.284;2022-07-23T16:15:42;33.70;60.70
37460;DHT22;23318;50.966;5.284;2022-07-23T16:18:09;33.00;62.30